Time;durP1;ratioP1;P1;durP2;ratioP2;P2;SDS_P1;SDS_P2;PMS_P1;PMS_P2;Temp;Humidity;BMP_temperature;BMP_pressure;BME280_temperature;BME280_humidity;BME280_pressure;Samples;Min_cycle;Max_cycle;Signal;HPM_P1;HPM_P2
2023/08/25 00:00:29;;;;;;;;;;;;;;;;;;5059603;28;19996;-59
2023/08/25 00:02:55;;;;;;;;;;;;;;;;;;5060552;28;19909;-59
2023/08/25 00:05:21;;;;;;;;;;;;;;;;;;5076413;28;19916;-59
2023/08/25 00:07:47;;;;;;;;;;;;;;;;;;5075079;28;20360;-59
2023/08/25 00:10:13;;;;;;;;;;;;;;;;;;5076014;28;19960;-60
2023/08/25 00:12:39;;;;;;;;;;;;;;;;;;5074915;28;20368;-59
2023/08/25 00:15:05;;;;;;;;;;;;;;;;;;5075686;28;19962;-58
2023/08/25 00:17:31;;;;;;;;;;;;;;;;;;5075749;28;20296;-59
2023/08/25 00:19:58;;;;;;;;;;;;;;;;;;5075797;28;19927;-59
2023/08/25 00:22:24;;;;;;;;;;;;;;;;;;5076205;28;20002;-58
2023/08/25 00:24:52;;;;;;;;;;;;;;;;;;5076159;28;20406;-59
2023/08/25 00:27:18;;;;;;;;;;;;;;;;;;5076287;28;19991;-59
2023/08/25 00:29:44;;;;;;;;;;;;;;;;;;5074489;28;20414;-59
2023/08/25 00:32:10;;;;;;;;;;;;;;;;;;5074515;28;19912;-59
2023/08/25 00:34:36;;;;;;;;;;;;;;;;;;5075904;28;19909;-59
2023/08/25 00:37:03;;;;;;;;;;;;;;;;;;5069475;28;19967;-59
2023/08/25 00:39:29;;;;;;;;;;;;;;;;;;5056066;28;19999;-58
2023/08/25 00:41:55;;;;;;;;;;;;;;;;;;5066484;28;19909;-59
2023/08/25 00:44:21;;;;;;;;;;;;;;;;;;5074385;28;19912;-59
2023/08/25 00:46:47;;;;;;;;;;;;;;;;;;5075592;28;19955;-60
2023/08/25 00:49:15;;;;;;;;;;;;;;;;;;5075757;28;19916;-60
2023/08/25 00:51:40;;;;;;;;;;;;;;;;;;5074230;28;19908;-59
2023/08/25 00:54:06;;;;;;;;;;;;;;;;;;5074185;28;19909;-59
2023/08/25 00:56:32;;;;;;;;;;;;;;;;;;5075401;28;19908;-59
2023/08/25 00:58:58;;;;;;;;;;;;;;;;;;5075389;28;19912;-67
2023/08/25 01:01:24;;;;;;;;;;;;;;;;;;5068192;28;19962;-67
2023/08/25 01:03:50;;;;;;;;;;;;;;;;;;5064491;28;19955;-67
2023/08/25 01:06:16;;;;;;;;;;;;;;;;;;5070579;28;20011;-67
2023/08/25 01:08:42;;;;;;;;;;;;;;;;;;5060801;28;19955;-68
2023/08/25 01:11:08;;;;;;;;;;;;;;;;;;5071893;28;20359;-66
2023/08/25 01:13:34;;;;;;;;;;;;;;;;;;5067763;28;19916;-67
2023/08/25 01:16:00;;;;;;;;;;;;;;;;;;5061181;28;19938;-67
2023/08/25 01:18:26;;;;;;;;;;;;;;;;;;5073249;28;19920;-67
2023/08/25 01:20:52;;;;;;;;;;;;;;;;;;5064950;28;19943;-67
2023/08/25 01:23:18;;;;;;;;;;;;;;;;;;5070745;28;19913;-68
2023/08/25 01:25:44;;;;;;;;;;;;;;;;;;5073664;28;19908;-68
2023/08/25 01:28:10;;;;;;;;;;;;;;;;;;5068603;28;19995;-67
2023/08/25 01:30:36;;;;;;;;;;;;;;;;;;5052917;28;19959;-68
2023/08/25 01:33:03;;;;;;;;;;;;;;;;;;5058576;28;19974;-68
2023/08/25 01:35:29;;;;;;;;;;;;;;;;;;5071468;28;19912;-67
2023/08/25 01:37:55;;;;;;;;;;;;;;;;;;5051914;28;20007;-67
2023/08/25 01:40:21;;;;;;;;;;;;;;;;;;5051826;28;20261;-67
2023/08/25 01:42:46;;;;;;;;;;;;;;;;;;5063881;28;19920;-68
2023/08/25 01:45:12;;;;;;;;;;;;;;;;;;5053264;28;20022;-67
2023/08/25 01:47:38;;;;;;;;;;;;;;;;;;5053570;28;19913;-68
2023/08/25 01:50:04;;;;;;;;;;;;;;;;;;5066582;28;20015;-67
2023/08/25 01:52:30;;;;;;;;;;;;;;;;;;5073054;28;19965;-67
2023/08/25 01:54:56;;;;;;;;;;;;;;;;;;5073038;28;20293;-68
2023/08/25 01:57:22;;;;;;;;;;;;;;;;;;5072755;28;19927;-67
2023/08/25 01:59:48;;;;;;;;;;;;;;;;;;5060633;28;19913;-68
2023/08/25 02:02:14;;;;;;;;;;;;;;;;;;5071441;28;19913;-67
2023/08/25 02:04:40;;;;;;;;;;;;;;;;;;5061098;28;19917;-67
2023/08/25 02:07:05;;;;;;;;;;;;;;;;;;5072830;28;19915;-67
2023/08/25 02:09:31;;;;;;;;;;;;;;;;;;5073095;28;20299;-68
2023/08/25 02:11:57;;;;;;;;;;;;;;;;;;5071424;28;19948;-67
2023/08/25 02:14:23;;;;;;;;;;;;;;;;;;5072461;28;19920;-67
2023/08/25 02:16:49;;;;;;;;;;;;;;;;;;5072207;28;19917;-67
2023/08/25 02:19:15;;;;;;;;;;;;;;;;;;5070364;28;19963;-64
2023/08/25 02:21:41;;;;;;;;;;;;;;;;;;5069715;28;19956;-64
2023/08/25 02:24:07;;;;;;;;;;;;;;;;;;5071865;28;20397;-64
2023/08/25 02:26:33;;;;;;;;;;;;;;;;;;5072412;28;20376;-64
2023/08/25 02:28:59;;;;;;;;;;;;;;;;;;5062429;28;20005;-64
2023/08/25 02:31:25;;;;;;;;;;;;;;;;;;5052154;28;20010;-64
2023/08/25 02:33:50;;;;;;;;;;;;;;;;;;5064756;28;19922;-64
2023/08/25 02:36:16;;;;;;;;;;;;;;;;;;5063462;28;19909;-64
2023/08/25 02:38:42;;;;;;;;;;;;;;;;;;5063621;28;20386;-64
2023/08/25 02:41:08;;;;;;;;;;;;;;;;;;5071043;28;19920;-64
2023/08/25 02:43:34;;;;;;;;;;;;;;;;;;5072189;28;20014;-64
2023/08/25 02:46:00;;;;;;;;;;;;;;;;;;5072300;28;20047;-64
2023/08/25 02:48:26;;;;;;;;;;;;;;;;;;5072288;28;19920;-64
2023/08/25 02:50:52;;;;;;;;;;;;;;;;;;5070499;28;19923;-64
2023/08/25 02:53:18;;;;;;;;;;;;;;;;;;5070666;28;19948;-64
2023/08/25 02:55:44;;;;;;;;;;;;;;;;;;5056484;28;20421;-64
2023/08/25 02:58:10;;;;;;;;;;;;;;;;;;5057410;28;19935;-64
2023/08/25 03:00:36;;;;;;;;;;;;;;;;;;5052875;28;20323;-64
2023/08/25 03:03:02;;;;;;;;;;;;;;;;;;5057111;28;19917;-64
2023/08/25 03:05:28;;;;;;;;;;;;;;;;;;5071693;28;19970;-64
2023/08/25 03:07:54;;;;;;;;;;;;;;;;;;5061043;28;20406;-64
2023/08/25 03:10:19;;;;;;;;;;;;;;;;;;5071827;28;19978;-64
2023/08/25 03:12:45;;;;;;;;;;;;;;;;;;5071157;28;19934;-64
2023/08/25 03:15:11;;;;;;;;;;;;;;;;;;5072253;28;19920;-64
2023/08/25 03:17:37;;;;;;;;;;;;;;;;;;5062219;28;19956;-64
2023/08/25 03:20:03;;;;;;;;;;;;;;;;;;5066340;28;19995;-64
2023/08/25 03:22:29;;;;;;;;;;;;;;;;;;5066803;28;19977;-64
2023/08/25 03:24:55;;;;;;;;;;;;;;;;;;5072300;28;20284;-64
2023/08/25 03:27:21;;;;;;;;;;;;;;;;;;5072239;28;20436;-64
2023/08/25 03:29:47;;;;;;;;;;;;;;;;;;5062496;28;20004;-67
2023/08/25 03:32:13;;;;;;;;;;;;;;;;;;5052686;28;19916;-67
2023/08/25 03:34:39;;;;;;;;;;;;;;;;;;5051650;28;20002;-66
2023/08/25 03:37:05;;;;;;;;;;;;;;;;;;5068768;28;20279;-67
2023/08/25 03:39:32;;;;;;;;;;;;;;;;;;5072012;28;20409;-66
2023/08/25 03:41:58;;;;;;;;;;;;;;;;;;5069711;28;19920;-68
2023/08/25 03:44:24;;;;;;;;;;;;;;;;;;5069837;28;19913;-67
2023/08/25 03:46:49;;;;;;;;;;;;;;;;;;5068547;28;20016;-67
2023/08/25 03:49:15;;;;;;;;;;;;;;;;;;5051427;28;19912;-68
2023/08/25 03:51:41;;;;;;;;;;;;;;;;;;5074750;28;19963;-67
2023/08/25 03:54:07;;;;;;;;;;;;;;;;;;5073811;28;19912;-67
2023/08/25 03:56:33;;;;;;;;;;;;;;;;;;5069372;28;19944;-67
2023/08/25 03:58:59;;;;;;;;;;;;;;;;;;5067745;28;19960;-67
2023/08/25 04:01:25;;;;;;;;;;;;;;;;;;5060791;28;19912;-66
2023/08/25 04:03:51;;;;;;;;;;;;;;;;;;5067317;28;19923;-67
2023/08/25 04:06:17;;;;;;;;;;;;;;;;;;5066565;28;19994;-67
2023/08/25 04:08:43;;;;;;;;;;;;;;;;;;5068003;28;19948;-67
2023/08/25 04:11:08;;;;;;;;;;;;;;;;;;5073541;28;20283;-68
2023/08/25 04:13:34;;;;;;;;;;;;;;;;;;5068622;28;19934;-67
2023/08/25 04:16:04;;;;;;;;;;;;;;;;;;5072408;28;19908;-67
2023/08/25 04:18:30;;;;;;;;;;;;;;;;;;5065658;28;19912;-66
2023/08/25 04:20:55;;;;;;;;;;;;;;;;;;5061494;28;19971;-67
2023/08/25 04:23:24;;;;;;;;;;;;;;;;;;5073432;28;20459;-67
2023/08/25 04:25:50;;;;;;;;;;;;;;;;;;5067811;28;20355;-68
2023/08/25 04:28:16;;;;;;;;;;;;;;;;;;5073307;28;19916;-67
2023/08/25 04:30:42;;;;;;;;;;;;;;;;;;5059486;28;19978;-65
2023/08/25 04:33:08;;;;;;;;;;;;;;;;;;5069996;28;19920;-67
2023/08/25 04:35:36;;;;;;;;;;;;;;;;;;5070607;28;20295;-68
2023/08/25 04:38:02;;;;;;;;;;;;;;;;;;5066398;28;19974;-67
2023/08/25 04:40:28;;;;;;;;;;;;;;;;;;5071174;28;19932;-67
2023/08/25 04:42:54;;;;;;;;;;;;;;;;;;5067416;28;20315;-67
2023/08/25 04:45:20;;;;;;;;;;;;;;;;;;5073269;28;20443;-68
2023/08/25 04:47:46;;;;;;;;;;;;;;;;;;5061056;28;19957;-67
2023/08/25 04:50:11;;;;;;;;;;;;;;;;;;5072305;28;19964;-67
2023/08/25 04:52:37;;;;;;;;;;;;;;;;;;5070708;28;19913;-67
2023/08/25 04:55:04;;;;;;;;;;;;;;;;;;5071260;28;19916;-67
2023/08/25 04:57:30;;;;;;;;;;;;;;;;;;5064091;28;20428;-66
2023/08/25 04:59:56;;;;;;;;;;;;;;;;;;5069971;28;20011;-66
2023/08/25 05:02:22;;;;;;;;;;;;;;;;;;5069664;28;19952;-68
2023/08/25 05:04:48;;;;;;;;;;;;;;;;;;5068058;28;20483;-66
2023/08/25 05:07:14;;;;;;;;;;;;;;;;;;5064358;28;19920;-67
2023/08/25 05:09:40;;;;;;;;;;;;;;;;;;5063184;28;19928;-66
2023/08/25 05:12:06;;;;;;;;;;;;;;;;;;5072863;28;19909;-67
2023/08/25 05:14:31;;;;;;;;;;;;;;;;;;5072273;28;20019;-67
2023/08/25 05:16:57;;;;;;;;;;;;;;;;;;5060422;28;19913;-67
2023/08/25 05:19:23;;;;;;;;;;;;;;;;;;5064308;28;19920;-67
2023/08/25 05:21:49;;;;;;;;;;;;;;;;;;5065972;28;20042;-68
2023/08/25 05:24:15;;;;;;;;;;;;;;;;;;5072344;28;20206;-67
2023/08/25 05:26:41;;;;;;;;;;;;;;;;;;5069410;28;19913;-66
2023/08/25 05:29:07;;;;;;;;;;;;;;;;;;5063379;28;19912;-66
2023/08/25 05:31:33;;;;;;;;;;;;;;;;;;5071505;28;19916;-67
2023/08/25 05:33:59;;;;;;;;;;;;;;;;;;5072625;28;19965;-68
2023/08/25 05:36:25;;;;;;;;;;;;;;;;;;5071828;28;20268;-67
2023/08/25 05:38:51;;;;;;;;;;;;;;;;;;5072677;28;20377;-68
2023/08/25 05:41:17;;;;;;;;;;;;;;;;;;5071942;28;19913;-67
2023/08/25 05:43:43;;;;;;;;;;;;;;;;;;5071253;28;20257;-67
2023/08/25 05:46:09;;;;;;;;;;;;;;;;;;5058325;28;20377;-67
2023/08/25 05:48:35;;;;;;;;;;;;;;;;;;5070074;28;20053;-58
2023/08/25 05:51:01;;;;;;;;;;;;;;;;;;5071940;28;19927;-67
2023/08/25 05:53:27;;;;;;;;;;;;;;;;;;5059523;28;20354;-67
2023/08/25 05:55:53;;;;;;;;;;;;;;;;;;5071446;28;19912;-68
2023/08/25 05:58:19;;;;;;;;;;;;;;;;;;5071470;28;19919;-67
2023/08/25 06:00:45;;;;;;;;;;;;;;;;;;5071486;28;19917;-66
2023/08/25 06:03:10;;;;;;;;;;;;;;;;;;5071648;28;20054;-67
2023/08/25 06:05:36;;;;;;;;;;;;;;;;;;5069971;28;19955;-67
2023/08/25 06:08:02;;;;;;;;;;;;;;;;;;5069831;28;20463;-67
2023/08/25 06:10:28;;;;;;;;;;;;;;;;;;5069961;28;19970;-67
2023/08/25 06:12:54;;;;;;;;;;;;;;;;;;5069603;28;20044;-67
2023/08/25 06:15:20;;;;;;;;;;;;;;;;;;5070786;28;20376;-68
2023/08/25 06:17:46;;;;;;;;;;;;;;;;;;5071140;28;19909;-65
2023/08/25 06:20:12;;;;;;;;;;;;;;;;;;5061051;28;20340;-68
2023/08/25 06:22:38;;;;;;;;;;;;;;;;;;5067654;28;19958;-67
2023/08/25 06:25:03;;;;;;;;;;;;;;;;;;5067607;28;19913;-67
2023/08/25 06:27:29;;;;;;;;;;;;;;;;;;5062418;28;20373;-67
2023/08/25 06:29:55;;;;;;;;;;;;;;;;;;5064426;28;19990;-67
2023/08/25 06:32:23;;;;;;;;;;;;;;;;;;5071503;28;20078;-67
2023/08/25 06:34:51;;;;;;;;;;;;;;;;;;5062855;28;19917;-67
2023/08/25 06:37:17;;;;;;;;;;;;;;;;;;5067740;28;19912;-68
2023/08/25 06:39:45;;;;;;;;;;;;;;;;;;5071179;28;19908;-67
2023/08/25 06:42:11;;;;;;;;;;;;;;;;;;5058299;28;19908;-68
2023/08/25 06:44:37;;;;;;;;;;;;;;;;;;5071623;28;19959;-68
2023/08/25 06:47:03;;;;;;;;;;;;;;;;;;5071015;28;20348;-68
2023/08/25 06:49:29;;;;;;;;;;;;;;;;;;5071004;28;19935;-67
2023/08/25 06:51:55;;;;;;;;;;;;;;;;;;5065856;28;19935;-67
2023/08/25 06:54:21;;;;;;;;;;;;;;;;;;5071432;28;19919;-67
2023/08/25 06:56:47;;;;;;;;;;;;;;;;;;5070903;28;20117;-66
2023/08/25 06:59:14;;;;;;;;;;;;;;;;;;5071073;28;20033;-63
2023/08/25 07:01:40;;;;;;;;;;;;;;;;;;5066345;28;19912;-63
2023/08/25 07:04:06;;;;;;;;;;;;;;;;;;5066323;28;20386;-63
2023/08/25 07:06:32;;;;;;;;;;;;;;;;;;5066716;28;21015;-64
2023/08/25 07:08:57;;;;;;;;;;;;;;;;;;5062270;28;20003;-63
2023/08/25 07:11:26;;;;;;;;;;;;;;;;;;5070848;28;20000;-63
2023/08/25 07:13:52;;;;;;;;;;;;;;;;;;5071437;28;19966;-64
2023/08/25 07:16:18;;;;;;;;;;;;;;;;;;5064955;28;19928;-64
2023/08/25 07:18:43;;;;;;;;;;;;;;;;;;5064301;28;20433;-64
2023/08/25 07:21:10;;;;;;;;;;;;;;;;;;5065621;28;19920;-64
2023/08/25 07:23:36;;;;;;;;;;;;;;;;;;5060216;28;19962;-64
2023/08/25 07:26:03;;;;;;;;;;;;;;;;;;5070704;28;20334;-62
2023/08/25 07:28:29;;;;;;;;;;;;;;;;;;5066705;28;19920;-64
2023/08/25 07:30:56;;;;;;;;;;;;;;;;;;5073182;28;20283;-63
2023/08/25 07:33:22;;;;;;;;;;;;;;;;;;5074899;28;20319;-63
2023/08/25 07:35:48;;;;;;;;;;;;;;;;;;5071969;28;19939;-63
2023/08/25 07:38:14;;;;;;;;;;;;;;;;;;5056383;28;19916;-64
2023/08/25 07:40:40;;;;;;;;;;;;;;;;;;5066691;28;20368;-63
2023/08/25 07:43:06;;;;;;;;;;;;;;;;;;5063106;28;19963;-64
2023/08/25 07:45:32;;;;;;;;;;;;;;;;;;5065246;28;19992;-63
2023/08/25 07:47:59;;;;;;;;;;;;;;;;;;5072685;28;19912;-63
2023/08/25 07:50:25;;;;;;;;;;;;;;;;;;5066938;28;20011;-63
2023/08/25 07:52:51;;;;;;;;;;;;;;;;;;5068928;28;20424;-63
2023/08/25 07:55:17;;;;;;;;;;;;;;;;;;5074588;28;19917;-61
2023/08/25 07:57:46;;;;;;;;;;;;;;;;;;5074270;28;19958;-61
2023/08/25 08:00:15;;;;;;;;;;;;;;;;;;5074001;28;19919;-61
2023/08/25 08:02:42;;;;;;;;;;;;;;;;;;5069940;28;19912;-61
2023/08/25 08:05:08;;;;;;;;;;;;;;;;;;5073625;28;19913;-61
2023/08/25 08:07:34;;;;;;;;;;;;;;;;;;5071834;28;20025;-61
2023/08/25 08:10:00;;;;;;;;;;;;;;;;;;5071774;28;20380;-64
2023/08/25 08:12:26;;;;;;;;;;;;;;;;;;5066272;28;20003;-63
2023/08/25 08:14:51;;;;;;;;;;;;;;;;;;5073916;28;19920;-64
2023/08/25 08:17:17;;;;;;;;;;;;;;;;;;5073432;28;20363;-62
2023/08/25 08:19:43;;;;;;;;;;;;;;;;;;5073254;28;19920;-62
2023/08/25 08:22:09;;;;;;;;;;;;;;;;;;5073603;28;20284;-64
2023/08/25 08:24:36;;;;;;;;;;;;;;;;;;5068298;28;19959;-64
2023/08/25 08:27:02;;;;;;;;;;;;;;;;;;5073932;28;19921;-65
2023/08/25 08:29:28;;;;;;;;;;;;;;;;;;5073614;28;19999;-64
2023/08/25 08:31:57;;;;;;;;;;;;;;;;;;5061001;28;19939;-65
2023/08/25 08:34:23;;;;;;;;;;;;;;;;;;5069965;28;19912;-63
2023/08/25 08:36:49;;;;;;;;;;;;;;;;;;5059457;28;19964;-64
2023/08/25 08:39:15;;;;;;;;;;;;;;;;;;5067974;28;19908;-65
2023/08/25 08:41:41;;;;;;;;;;;;;;;;;;5069386;28;20011;-65
2023/08/25 08:44:07;;;;;;;;;;;;;;;;;;5071975;28;19947;-64
2023/08/25 08:46:33;;;;;;;;;;;;;;;;;;5063763;28;19912;-64
2023/08/25 08:48:59;;;;;;;;;;;;;;;;;;5072739;28;19919;-64
2023/08/25 08:51:24;;;;;;;;;;;;;;;;;;5069047;28;19962;-67
2023/08/25 08:53:52;;;;;;;;;;;;;;;;;;5072969;28;19986;-67
2023/08/25 08:56:18;;;;;;;;;;;;;;;;;;5069670;28;19970;-64
2023/08/25 08:58:44;;;;;;;;;;;;;;;;;;5070170;28;19940;-64
2023/08/25 09:01:10;;;;;;;;;;;;;;;;;;5059533;28;20396;-64
2023/08/25 09:03:36;;;;;;;;;;;;;;;;;;5062832;28;20024;-65
2023/08/25 09:06:03;;;;;;;;;;;;;;;;;;5060969;28;19999;-65
2023/08/25 09:08:29;;;;;;;;;;;;;;;;;;5063254;28;19913;-64
2023/08/25 09:10:55;;;;;;;;;;;;;;;;;;5062815;28;19922;-66
2023/08/25 09:13:21;;;;;;;;;;;;;;;;;;5058462;28;19913;-64
2023/08/25 09:15:49;;;;;;;;;;;;;;;;;;5070209;28;20364;-65
2023/08/25 09:18:15;;;;;;;;;;;;;;;;;;5070293;28;20387;-64
2023/08/25 09:20:41;;;;;;;;;;;;;;;;;;5069666;28;19960;-64
2023/08/25 09:23:08;;;;;;;;;;;;;;;;;;5071664;28;19955;-64
2023/08/25 09:25:34;;;;;;;;;;;;;;;;;;5065681;28;19916;-65
2023/08/25 09:28:00;;;;;;;;;;;;;;;;;;5065010;28;19956;-64
2023/08/25 09:30:25;;;;;;;;;;;;;;;;;;5069613;28;20376;-64
2023/08/25 09:32:51;;;;;;;;;;;;;;;;;;5067997;28;19919;-65
2023/08/25 09:35:21;;;;;;;;;;;;;;;;;;5060436;28;19948;-65
2023/08/25 09:37:47;;;;;;;;;;;;;;;;;;5062822;28;20399;-66
2023/08/25 09:40:13;;;;;;;;;;;;;;;;;;5060868;28;19955;-65
2023/08/25 09:42:39;;;;;;;;;;;;;;;;;;5064577;28;20339;-66
2023/08/25 09:45:05;;;;;;;;;;;;;;;;;;5067616;28;20368;-64
2023/08/25 09:47:31;;;;;;;;;;;;;;;;;;5070863;28;19913;-66
2023/08/25 09:49:57;;;;;;;;;;;;;;;;;;5069482;28;19976;-64
2023/08/25 09:52:23;;;;;;;;;;;;;;;;;;5072148;28;19912;-65
2023/08/25 09:54:49;;;;;;;;;;;;;;;;;;5072026;28;19996;-66
2023/08/25 09:57:15;;;;;;;;;;;;;;;;;;5070344;28;20382;-64
2023/08/25 09:59:40;;;;;;;;;;;;;;;;;;5070293;28;19920;-66
2023/08/25 10:02:06;;;;;;;;;;;;;;;;;;5066403;28;20290;-67
2023/08/25 10:04:32;;;;;;;;;;;;;;;;;;5058128;28;20013;-64
2023/08/25 10:06:59;;;;;;;;;;;;;;;;;;5071808;28;19955;-65
2023/08/25 10:09:25;;;;;;;;;;;;;;;;;;5059229;28;19912;-65
2023/08/25 10:11:51;;;;;;;;;;;;;;;;;;5061956;28;19967;-64
2023/08/25 10:14:17;;;;;;;;;;;;;;;;;;5069754;28;19912;-65
2023/08/25 10:16:43;;;;;;;;;;;;;;;;;;5070673;28;20406;-65
2023/08/25 10:19:08;;;;;;;;;;;;;;;;;;5068623;28;20384;-64
2023/08/25 10:21:34;;;;;;;;;;;;;;;;;;5067136;28;19962;-64
2023/08/25 10:24:00;;;;;;;;;;;;;;;;;;5071244;28;19938;-64
2023/08/25 10:26:26;;;;;;;;;;;;;;;;;;5071561;28;19923;-67
2023/08/25 10:28:52;;;;;;;;;;;;;;;;;;5067629;28;20003;-63
2023/08/25 10:31:18;;;;;;;;;;;;;;;;;;5068203;28;19921;-61
2023/08/25 10:33:44;;;;;;;;;;;;;;;;;;5062656;28;20368;-63
2023/08/25 10:36:10;;;;;;;;;;;;;;;;;;5071288;28;19913;-63
2023/08/25 10:38:36;;;;;;;;;;;;;;;;;;5065619;28;19955;-63
2023/08/25 10:41:02;;;;;;;;;;;;;;;;;;5066110;28;20032;-63
2023/08/25 10:43:29;;;;;;;;;;;;;;;;;;5070697;28;20399;-61
2023/08/25 10:45:55;;;;;;;;;;;;;;;;;;5068710;28;20299;-61
2023/08/25 10:48:21;;;;;;;;;;;;;;;;;;5062605;28;19958;-61
2023/08/25 10:50:47;;;;;;;;;;;;;;;;;;5063970;28;19961;-61
2023/08/25 10:53:13;;;;;;;;;;;;;;;;;;5064554;28;19917;-62
2023/08/25 10:55:39;;;;;;;;;;;;;;;;;;5062496;28;19920;-64
2023/08/25 10:58:05;;;;;;;;;;;;;;;;;;5071558;28;19943;-63
2023/08/25 11:00:32;;;;;;;;;;;;;;;;;;5078246;28;19955;-63
2023/08/25 11:02:58;;;;;;;;;;;;;;;;;;5057692;28;19925;-63
2023/08/25 11:05:24;;;;;;;;;;;;;;;;;;5067341;28;19913;-63
2023/08/25 11:07:50;;;;;;;;;;;;;;;;;;5068332;28;20218;-61
2023/08/25 11:10:16;;;;;;;;;;;;;;;;;;5072371;28;19952;-63
2023/08/25 11:12:42;;;;;;;;;;;;;;;;;;5073062;28;20226;-60
2023/08/25 11:15:08;;;;;;;;;;;;;;;;;;5062970;28;20362;-63
2023/08/25 11:17:34;;;;;;;;;;;;;;;;;;5065560;28;20269;-61
2023/08/25 11:20:00;;;;;;;;;;;;;;;;;;5080235;28;19927;-61
2023/08/25 11:22:26;;;;;;;;;;;;;;;;;;5072871;28;19967;-61
2023/08/25 11:24:52;;;;;;;;;;;;;;;;;;5073125;28;20346;-61
2023/08/25 11:27:19;;;;;;;;;;;;;;;;;;5070608;28;19963;-61
2023/08/25 11:29:45;;;;;;;;;;;;;;;;;;5072357;28;20007;-61
2023/08/25 11:32:11;;;;;;;;;;;;;;;;;;5071082;28;20032;-61
2023/08/25 11:34:37;;;;;;;;;;;;;;;;;;5065565;28;19908;-64
2023/08/25 11:37:03;;;;;;;;;;;;;;;;;;5066038;28;19921;-62
2023/08/25 11:39:29;;;;;;;;;;;;;;;;;;5074743;28;19969;-61
2023/08/25 11:41:55;;;;;;;;;;;;;;;;;;5069510;28;20372;-61
2023/08/25 11:44:21;;;;;;;;;;;;;;;;;;5067697;28;19928;-61
2023/08/25 11:46:47;;;;;;;;;;;;;;;;;;5065870;28;19967;-62
2023/08/25 11:49:13;;;;;;;;;;;;;;;;;;5070881;28;19947;-61
2023/08/25 11:51:39;;;;;;;;;;;;;;;;;;5067531;28;20341;-61
2023/08/25 11:54:05;;;;;;;;;;;;;;;;;;5074075;28;19913;-61
2023/08/25 11:56:31;;;;;;;;;;;;;;;;;;5071272;28;19931;-62
2023/08/25 11:58:57;;;;;;;;;;;;;;;;;;5068287;28;19912;-62
2023/08/25 12:01:23;;;;;;;;;;;;;;;;;;5065653;28;19960;-62
2023/08/25 12:03:48;;;;;;;;;;;;;;;;;;5070551;28;21521;-62
2023/08/25 12:06:15;;;;;;;;;;;;;;;;;;5069067;28;19916;-62
2023/08/25 12:08:41;;;;;;;;;;;;;;;;;;5069098;28;19927;-61
2023/08/25 12:11:07;;;;;;;;;;;;;;;;;;5072110;28;19920;-62
2023/08/25 12:13:35;;;;;;;;;;;;;;;;;;5066412;28;19915;-61
2023/08/25 12:16:01;;;;;;;;;;;;;;;;;;5070064;28;19913;-62
2023/08/25 12:18:27;;;;;;;;;;;;;;;;;;5070682;28;19919;-62
2023/08/25 12:20:53;;;;;;;;;;;;;;;;;;5062215;28;20418;-62
2023/08/25 12:23:19;;;;;;;;;;;;;;;;;;5071919;28;19948;-62
2023/08/25 12:25:45;;;;;;;;;;;;;;;;;;5071933;28;20007;-62
2023/08/25 12:28:11;;;;;;;;;;;;;;;;;;5070717;28;20428;-62
2023/08/25 12:30:37;;;;;;;;;;;;;;;;;;5064814;28;20004;-62
2023/08/25 12:33:04;;;;;;;;;;;;;;;;;;5064346;28;19927;-62
2023/08/25 12:35:30;;;;;;;;;;;;;;;;;;5063151;28;20333;-62
2023/08/25 12:37:56;;;;;;;;;;;;;;;;;;5072799;28;19951;-62
2023/08/25 12:40:22;;;;;;;;;;;;;;;;;;5072063;28;19916;-62
2023/08/25 12:42:51;;;;;;;;;;;;;;;;;;5070290;28;20973;-62
2023/08/25 12:45:17;;;;;;;;;;;;;;;;;;5059973;28;19935;-62
2023/08/25 12:47:43;;;;;;;;;;;;;;;;;;5071858;28;20307;-63
2023/08/25 12:50:09;;;;;;;;;;;;;;;;;;5065703;28;19960;-63
2023/08/25 12:52:36;;;;;;;;;;;;;;;;;;5057409;28;19999;-63
2023/08/25 12:55:02;;;;;;;;;;;;;;;;;;5068811;28;20332;-63
2023/08/25 12:57:28;;;;;;;;;;;;;;;;;;5057286;28;20009;-63
2023/08/25 12:59:54;;;;;;;;;;;;;;;;;;5063453;28;19948;-62
2023/08/25 13:02:20;;;;;;;;;;;;;;;;;;5063269;28;20280;-62
2023/08/25 13:04:46;;;;;;;;;;;;;;;;;;5073057;28;19908;-63
2023/08/25 13:07:13;;;;;;;;;;;;;;;;;;5065814;28;19913;-62
2023/08/25 13:09:39;;;;;;;;;;;;;;;;;;5067769;28;19908;-63
2023/08/25 13:12:04;;;;;;;;;;;;;;;;;;5060708;28;20411;-63
2023/08/25 13:14:30;;;;;;;;;;;;;;;;;;5059485;28;19912;-62
2023/08/25 13:16:56;;;;;;;;;;;;;;;;;;5052327;28;19917;-62
2023/08/25 13:19:23;;;;;;;;;;;;;;;;;;5072915;28;19924;-63
2023/08/25 13:21:49;;;;;;;;;;;;;;;;;;5064942;28;20063;-63
2023/08/25 13:24:15;;;;;;;;;;;;;;;;;;5068950;28;19954;-63
2023/08/25 13:26:41;;;;;;;;;;;;;;;;;;5068825;28;19951;-62
2023/08/25 13:29:07;;;;;;;;;;;;;;;;;;5060925;28;19919;-63
2023/08/25 13:31:33;;;;;;;;;;;;;;;;;;5067076;28;19927;-63
2023/08/25 13:33:59;;;;;;;;;;;;;;;;;;5058339;28;20001;-63
2023/08/25 13:36:25;;;;;;;;;;;;;;;;;;5068666;28;19959;-63
2023/08/25 13:38:51;;;;;;;;;;;;;;;;;;5070069;28;20406;-63
2023/08/25 13:41:16;;;;;;;;;;;;;;;;;;5056771;28;19989;-62
2023/08/25 13:43:42;;;;;;;;;;;;;;;;;;5064608;28;20067;-62
2023/08/25 13:46:08;;;;;;;;;;;;;;;;;;5062002;28;19940;-63
2023/08/25 13:48:34;;;;;;;;;;;;;;;;;;5054825;28;19916;-62
2023/08/25 13:51:00;;;;;;;;;;;;;;;;;;5063944;28;19970;-63
2023/08/25 13:53:26;;;;;;;;;;;;;;;;;;5063172;28;20007;-63
2023/08/25 13:55:52;;;;;;;;;;;;;;;;;;5071624;28;20344;-63
2023/08/25 13:58:18;;;;;;;;;;;;;;;;;;5067716;28;19979;-63
2023/08/25 14:00:44;;;;;;;;;;;;;;;;;;5067861;28;19927;-60
2023/08/25 14:03:12;;;;;;;;;;;;;;;;;;5068177;28;19912;-59
2023/08/25 14:05:38;;;;;;;;;;;;;;;;;;5062769;28;19924;-58
2023/08/25 14:08:04;;;;;;;;;;;;;;;;;;5056653;28;19917;-59
2023/08/25 14:10:30;;;;;;;;;;;;;;;;;;5066584;28;20295;-61
2023/08/25 14:12:56;;;;;;;;;;;;;;;;;;5062538;28;19923;-62
2023/08/25 14:15:22;;;;;;;;;;;;;;;;;;5065407;28;20373;-59
2023/08/25 14:17:48;;;;;;;;;;;;;;;;;;5065007;28;19913;-59
2023/08/25 14:20:14;;;;;;;;;;;;;;;;;;5062357;28;20362;-57
2023/08/25 14:22:40;;;;;;;;;;;;;;;;;;5060967;28;19913;-57
2023/08/25 14:25:06;;;;;;;;;;;;;;;;;;5062599;28;19912;-61
2023/08/25 14:27:32;;;;;;;;;;;;;;;;;;5057198;28;21534;-59
2023/08/25 14:29:58;;;;;;;;;;;;;;;;;;5056753;28;19946;-58
2023/08/25 14:32:24;;;;;;;;;;;;;;;;;;5055633;28;20403;-59
2023/08/25 14:34:50;;;;;;;;;;;;;;;;;;5066735;28;20049;-59
2023/08/25 14:37:16;;;;;;;;;;;;;;;;;;5056242;28;19955;-58
2023/08/25 14:39:42;;;;;;;;;;;;;;;;;;5061505;28;20054;-58
2023/08/25 14:42:08;;;;;;;;;;;;;;;;;;5063783;28;20279;-58
2023/08/25 14:44:34;;;;;;;;;;;;;;;;;;5063875;28;19924;-57
2023/08/25 14:46:59;;;;;;;;;;;;;;;;;;5065780;28;20337;-58
2023/08/25 14:49:26;;;;;;;;;;;;;;;;;;5070995;28;20010;-59
2023/08/25 14:51:52;;;;;;;;;;;;;;;;;;5063300;28;19916;-58
2023/08/25 14:54:18;;;;;;;;;;;;;;;;;;5067271;28;20532;-58
2023/08/25 14:56:44;;;;;;;;;;;;;;;;;;5060052;28;19920;-58
2023/08/25 14:59:10;;;;;;;;;;;;;;;;;;5067811;28;19924;-58
2023/08/25 15:01:36;;;;;;;;;;;;;;;;;;5071275;28;19912;-59
2023/08/25 15:04:03;;;;;;;;;;;;;;;;;;5064778;28;19919;-58
2023/08/25 15:06:29;;;;;;;;;;;;;;;;;;5061213;28;20327;-57
2023/08/25 15:08:54;;;;;;;;;;;;;;;;;;5066673;28;19936;-62
2023/08/25 15:11:20;;;;;;;;;;;;;;;;;;5066840;28;19986;-63
2023/08/25 15:13:46;;;;;;;;;;;;;;;;;;5068608;28;20436;-63
2023/08/25 15:16:12;;;;;;;;;;;;;;;;;;5066511;28;20407;-62
2023/08/25 15:18:39;;;;;;;;;;;;;;;;;;5067134;28;19948;-62
2023/08/25 15:21:05;;;;;;;;;;;;;;;;;;5060701;28;20453;-62
2023/08/25 15:23:31;;;;;;;;;;;;;;;;;;5067132;28;19913;-62
2023/08/25 15:25:56;;;;;;;;;;;;;;;;;;5068482;28;19986;-62
2023/08/25 15:28:22;;;;;;;;;;;;;;;;;;5063664;28;20003;-62
2023/08/25 15:30:50;;;;;;;;;;;;;;;;;;5060218;28;19965;-62
2023/08/25 15:33:19;;;;;;;;;;;;;;;;;;5054268;28;21578;-63
2023/08/25 15:35:45;;;;;;;;;;;;;;;;;;5064936;28;19935;-62
2023/08/25 15:38:11;;;;;;;;;;;;;;;;;;5073450;28;20367;-62
2023/08/25 15:40:39;;;;;;;;;;;;;;;;;;5063374;28;19988;-63
2023/08/25 15:43:05;;;;;;;;;;;;;;;;;;5062439;28;19924;-62
2023/08/25 15:45:31;;;;;;;;;;;;;;;;;;5062715;28;20386;-62
2023/08/25 15:47:57;;;;;;;;;;;;;;;;;;5070339;28;19916;-62
2023/08/25 15:50:23;;;;;;;;;;;;;;;;;;5065866;28;19920;-62
2023/08/25 15:52:48;;;;;;;;;;;;;;;;;;5067353;28;20365;-62
2023/08/25 15:55:14;;;;;;;;;;;;;;;;;;5065492;28;19940;-61
2023/08/25 15:57:40;;;;;;;;;;;;;;;;;;5063380;28;20149;-62
2023/08/25 16:00:06;;;;;;;;;;;;;;;;;;5066111;28;19919;-62
2023/08/25 16:02:32;;;;;;;;;;;;;;;;;;5070101;28;19966;-62
2023/08/25 16:04:58;;;;;;;;;;;;;;;;;;5073307;28;19956;-63
2023/08/25 16:07:24;;;;;;;;;;;;;;;;;;5066826;28;20407;-62
2023/08/25 16:09:51;;;;;;;;;;;;;;;;;;5060834;28;20274;-62
2023/08/25 16:12:17;;;;;;;;;;;;;;;;;;5063688;28;20005;-63
2023/08/25 16:14:43;;;;;;;;;;;;;;;;;;5063674;28;20040;-62
2023/08/25 16:17:09;;;;;;;;;;;;;;;;;;5061054;28;19967;-63
2023/08/25 16:19:35;;;;;;;;;;;;;;;;;;5066033;28;20006;-58
2023/08/25 16:22:01;;;;;;;;;;;;;;;;;;5066264;28;19955;-58
2023/08/25 16:24:27;;;;;;;;;;;;;;;;;;5067144;28;19909;-58
2023/08/25 16:26:53;;;;;;;;;;;;;;;;;;5057385;28;19949;-58
2023/08/25 16:29:19;;;;;;;;;;;;;;;;;;5062667;28;20414;-61
2023/08/25 16:31:45;;;;;;;;;;;;;;;;;;5062492;28;20343;-60
2023/08/25 16:34:11;;;;;;;;;;;;;;;;;;5062650;28;19955;-59
2023/08/25 16:36:37;;;;;;;;;;;;;;;;;;5066871;28;19947;-58